createdAt,value
2022-10-18T00:00:02.186Z,17.00
2022-10-18T00:02:28.784Z,17.00
2022-10-18T00:04:55.503Z,17.00
2022-10-18T00:07:22.001Z,17.00
2022-10-18T00:09:48.512Z,17.00
2022-10-18T00:12:15.030Z,17.10
2022-10-18T00:14:41.656Z,17.10
2022-10-18T00:17:08.318Z,17.10
2022-10-18T00:19:34.882Z,17.10
2022-10-18T00:22:01.416Z,17.00
2022-10-18T00:24:27.987Z,17.10
2022-10-18T00:26:54.558Z,17.10
2022-10-18T00:29:21.063Z,17.10
2022-10-18T00:31:47.576Z,17.20
2022-10-18T00:34:15.975Z,17.10
2022-10-18T00:36:43.520Z,17.10
2022-10-18T00:39:16.382Z,17.00
2022-10-18T00:41:43.414Z,17.10
2022-10-18T00:44:13.154Z,17.00
2022-10-18T00:46:43.150Z,17.10
2022-10-18T00:49:13.629Z,17.00
2022-10-18T00:51:46.422Z,17.00
2022-10-18T00:54:14.886Z,17.00
2022-10-18T00:56:44.185Z,17.00
2022-10-18T00:59:13.574Z,17.00
2022-10-18T01:01:40.140Z,17.00
2022-10-18T01:04:06.747Z,17.00
2022-10-18T01:06:40.929Z,17.00
2022-10-18T01:09:18.749Z,17.00
2022-10-18T01:12:23.534Z,17.00
2022-10-18T01:15:16.655Z,16.90
2022-10-18T01:17:59.001Z,16.90
2022-10-18T01:20:34.353Z,17.00
2022-10-18T01:23:11.444Z,16.90
2022-10-18T01:26:16.247Z,16.90
2022-10-18T01:29:13.706Z,16.90
2022-10-18T01:31:47.850Z,16.90
2022-10-18T01:34:17.773Z,16.90
2022-10-18T01:36:56.132Z,17.00
2022-10-18T01:39:33.578Z,17.00
2022-10-18T01:42:02.795Z,16.90
2022-10-18T01:44:32.737Z,16.80
2022-10-18T01:47:00.313Z,16.90
2022-10-18T01:49:27.437Z,16.90
2022-10-18T01:51:54.168Z,16.80
2022-10-18T01:54:29.321Z,16.80
2022-10-18T01:56:58.648Z,16.80
2022-10-18T01:59:36.781Z,16.90
2022-10-18T02:02:18.581Z,16.80
2022-10-18T02:05:01.262Z,16.80
2022-10-18T02:07:51.954Z,16.80
2022-10-18T02:11:02.826Z,16.90
2022-10-18T02:13:35.228Z,16.90
2022-10-18T02:16:07.668Z,16.90
2022-10-18T02:18:39.533Z,16.90
2022-10-18T02:21:08.309Z,16.90
2022-10-18T02:23:35.900Z,16.90
2022-10-18T02:26:02.512Z,16.90
2022-10-18T02:28:29.254Z,16.80
2022-10-18T02:31:17.821Z,16.80
2022-10-18T02:34:00.592Z,16.80
2022-10-18T02:36:32.074Z,16.80
2022-10-18T02:39:03.207Z,16.80
2022-10-18T02:41:31.545Z,16.80
2022-10-18T02:43:58.606Z,16.70
2022-10-18T02:48:56.887Z,16.70
2022-10-18T02:51:24.723Z,16.70
2022-10-18T02:53:51.326Z,16.70
2022-10-18T02:56:17.990Z,16.70
2022-10-18T02:58:44.580Z,16.70
2022-10-18T03:01:11.162Z,16.70
2022-10-18T03:03:37.709Z,16.70
2022-10-18T03:06:04.358Z,16.70
2022-10-18T03:08:30.910Z,16.70
2022-10-18T03:10:57.475Z,16.70
2022-10-18T03:13:24.043Z,16.70
2022-10-18T03:15:50.550Z,16.60
2022-10-18T03:18:17.068Z,16.60
2022-10-18T03:20:43.565Z,16.60
2022-10-18T03:23:10.402Z,16.60
2022-10-18T03:25:36.920Z,16.50
2022-10-18T03:28:03.542Z,16.40
2022-10-18T03:30:30.260Z,16.40
2022-10-18T03:32:56.863Z,16.50
2022-10-18T03:35:23.517Z,16.40
2022-10-18T03:37:50.421Z,16.40
2022-10-18T03:40:17.199Z,16.30
2022-10-18T03:42:43.739Z,16.30
2022-10-18T03:45:10.384Z,16.20
2022-10-18T03:47:36.866Z,16.30
2022-10-18T03:50:03.774Z,16.40
2022-10-18T03:52:30.612Z,16.40
2022-10-18T03:54:57.451Z,16.50
2022-10-18T03:57:23.997Z,16.50
2022-10-18T03:59:50.594Z,16.70
2022-10-18T04:02:17.241Z,16.70
2022-10-18T04:04:43.949Z,16.80
2022-10-18T04:07:10.505Z,16.70
2022-10-18T04:09:37.029Z,16.70
2022-10-18T04:12:03.695Z,16.70
2022-10-18T04:14:30.291Z,16.70
2022-10-18T04:16:56.847Z,16.80
2022-10-18T04:19:23.409Z,16.70
2022-10-18T04:21:50.038Z,16.80
2022-10-18T04:24:17.826Z,16.70
2022-10-18T04:26:44.519Z,16.60
2022-10-18T04:29:11.154Z,16.60
2022-10-18T04:31:37.753Z,16.70
2022-10-18T04:34:04.390Z,16.60
2022-10-18T04:36:31.445Z,16.60
2022-10-18T04:38:57.953Z,16.50
2022-10-18T04:41:24.661Z,16.50
2022-10-18T04:43:51.216Z,16.50
2022-10-18T04:46:17.822Z,16.50
2022-10-18T04:48:44.362Z,16.50
2022-10-18T04:51:10.957Z,16.40
2022-10-18T04:53:37.602Z,16.50
2022-10-18T04:56:04.248Z,16.30
2022-10-18T04:58:30.743Z,16.30
2022-10-18T05:00:57.286Z,16.30
2022-10-18T05:03:23.827Z,16.30
2022-10-18T05:06:01.427Z,16.30
2022-10-18T05:08:29.183Z,16.30
2022-10-18T05:10:55.711Z,16.20
2022-10-18T05:13:22.274Z,16.20
2022-10-18T05:15:49.088Z,16.30
2022-10-18T05:18:15.668Z,16.20
2022-10-18T05:20:42.358Z,16.20
2022-10-18T05:23:10.733Z,16.20
2022-10-18T05:25:44.189Z,16.10
2022-10-18T05:28:34.649Z,16.20
2022-10-18T05:31:16.422Z,16.20
2022-10-18T05:33:43.102Z,16.20
2022-10-18T05:36:10.298Z,16.30
2022-10-18T05:38:45.185Z,16.30
2022-10-18T05:41:12.595Z,16.30
2022-10-18T05:43:40.110Z,16.30
2022-10-18T05:46:12.093Z,16.20
2022-10-18T05:48:40.432Z,16.20
2022-10-18T05:51:06.981Z,16.20
2022-10-18T05:53:37.753Z,16.20
2022-10-18T05:56:06.037Z,16.20
2022-10-18T05:58:33.238Z,16.20
2022-10-18T06:01:03.783Z,16.20
2022-10-18T06:03:30.722Z,16.20
2022-10-18T06:06:01.490Z,16.30
2022-10-18T06:08:28.202Z,16.30
2022-10-18T06:10:54.831Z,16.30
2022-10-18T06:13:21.461Z,16.30
2022-10-18T06:15:48.138Z,16.30
2022-10-18T06:18:14.776Z,16.30
2022-10-18T06:20:41.438Z,16.30
2022-10-18T06:23:07.968Z,16.30
2022-10-18T06:25:34.453Z,16.30
2022-10-18T06:28:00.934Z,16.30
2022-10-18T06:30:27.439Z,16.30
2022-10-18T06:32:53.937Z,16.30
2022-10-18T06:35:20.500Z,16.20
2022-10-18T06:37:47.032Z,16.20
2022-10-18T06:40:13.831Z,16.20
2022-10-18T06:42:40.547Z,16.20
2022-10-18T06:45:07.775Z,16.20
2022-10-18T06:47:34.337Z,16.20
2022-10-18T06:50:01.041Z,16.20
2022-10-18T06:52:27.613Z,16.20
2022-10-18T06:54:54.177Z,16.20
2022-10-18T06:57:21.459Z,16.20
2022-10-18T06:59:48.091Z,16.20
2022-10-18T07:02:17.114Z,16.20
2022-10-18T07:04:43.949Z,16.20
2022-10-18T07:07:10.573Z,16.20
2022-10-18T07:09:37.090Z,16.20
2022-10-18T07:12:03.853Z,16.10
2022-10-18T07:14:30.422Z,16.20
2022-10-18T07:16:59.542Z,16.10
2022-10-18T07:19:26.211Z,16.20
2022-10-18T07:21:52.741Z,16.20
2022-10-18T07:24:19.271Z,16.20
2022-10-18T07:26:45.768Z,16.20
2022-10-18T07:29:12.993Z,16.20
2022-10-18T07:31:40.693Z,16.30
2022-10-18T07:34:08.931Z,16.30
2022-10-18T07:36:35.663Z,16.40
2022-10-18T07:39:02.902Z,16.50
2022-10-18T07:41:31.691Z,16.40
2022-10-18T07:43:58.217Z,16.50
2022-10-18T07:46:24.846Z,16.40
2022-10-18T07:48:51.842Z,16.50
2022-10-18T07:51:20.343Z,16.50
2022-10-18T07:53:47.009Z,16.50
2022-10-18T07:56:16.399Z,16.60
2022-10-18T07:58:44.350Z,16.60
2022-10-18T08:01:11.543Z,16.70
2022-10-18T08:03:38.878Z,16.70
2022-10-18T08:06:08.865Z,16.70
2022-10-18T08:08:36.797Z,16.70
2022-10-18T08:11:05.676Z,16.80
2022-10-18T08:13:32.626Z,16.80
2022-10-18T08:16:01.306Z,16.90
2022-10-18T08:18:28.259Z,16.80
2022-10-18T08:20:55.017Z,16.90
2022-10-18T08:23:21.505Z,17.00
2022-10-18T08:25:48.045Z,17.10
2022-10-18T08:28:14.622Z,17.10
2022-10-18T08:30:41.107Z,17.10
2022-10-18T08:33:08.202Z,17.10
2022-10-18T08:35:35.022Z,17.10
2022-10-18T08:38:01.775Z,17.10
2022-10-18T08:40:28.763Z,17.10
2022-10-18T08:43:12.046Z,17.10
2022-10-18T08:45:43.117Z,17.10
2022-10-18T08:48:22.020Z,17.10
2022-10-18T08:50:50.758Z,17.10
2022-10-18T08:53:17.288Z,17.10
2022-10-18T08:56:05.781Z,17.10
2022-10-18T08:58:33.484Z,17.20
2022-10-18T09:01:27.399Z,17.30
2022-10-18T09:04:40.618Z,17.30
2022-10-18T09:07:19.232Z,17.30
2022-10-18T09:10:01.447Z,17.40
2022-10-18T09:12:59.889Z,17.50
2022-10-18T09:15:57.301Z,17.30
2022-10-18T09:18:39.179Z,17.50
2022-10-18T09:21:31.725Z,17.60
2022-10-18T09:24:12.318Z,17.60
2022-10-18T09:26:44.945Z,17.80
2022-10-18T09:29:39.274Z,17.90
2022-10-18T09:32:45.478Z,17.90
2022-10-18T09:35:37.504Z,18.00
2022-10-18T09:38:09.914Z,18.00
2022-10-18T09:40:58.126Z,18.10
2022-10-18T09:43:53.775Z,18.20
2022-10-18T09:46:23.264Z,18.30
2022-10-18T09:49:00.237Z,18.40
2022-10-18T09:51:37.157Z,18.30
2022-10-18T09:54:51.767Z,18.30
2022-10-18T09:57:29.248Z,18.40
2022-10-18T09:59:57.733Z,18.50
2022-10-18T10:02:24.655Z,18.60
2022-10-18T10:04:54.027Z,18.60
2022-10-18T10:07:27.718Z,18.60
2022-10-18T10:09:57.832Z,18.70
2022-10-18T10:12:31.834Z,18.80
2022-10-18T10:15:13.465Z,18.80
2022-10-18T10:17:40.255Z,18.90
2022-10-18T10:20:20.963Z,18.80
2022-10-18T10:22:49.738Z,18.80
2022-10-18T10:25:32.513Z,18.80
2022-10-18T10:28:16.307Z,18.80
2022-10-18T10:30:42.894Z,18.80
2022-10-18T10:33:36.571Z,18.80
2022-10-18T10:36:07.012Z,18.80
2022-10-18T10:38:33.655Z,18.70
2022-10-18T10:41:00.513Z,18.70
2022-10-18T10:43:38.329Z,18.80
2022-10-18T10:46:08.420Z,18.80
2022-10-18T10:49:04.472Z,18.90
2022-10-18T10:51:40.909Z,18.90
2022-10-18T10:54:13.858Z,19.00
2022-10-18T10:56:57.853Z,19.00
2022-10-18T10:59:26.830Z,19.10
2022-10-18T11:02:26.203Z,19.10
2022-10-18T11:04:54.755Z,19.10
2022-10-18T11:07:35.635Z,19.10
2022-10-18T11:10:02.226Z,18.90
2022-10-18T11:12:34.504Z,18.80
2022-10-18T11:15:09.915Z,18.70
2022-10-18T11:17:41.794Z,18.60
2022-10-18T11:20:29.333Z,18.50
2022-10-18T11:23:06.366Z,18.40
2022-10-18T11:25:44.993Z,18.30
2022-10-18T11:28:36.076Z,18.30
2022-10-18T11:31:32.167Z,18.40
2022-10-18T11:34:17.452Z,18.40
2022-10-18T11:37:02.313Z,18.40
2022-10-18T11:39:45.705Z,18.40
2022-10-18T11:42:29.354Z,18.50
2022-10-18T11:45:11.103Z,18.50
2022-10-18T11:47:55.916Z,18.50
2022-10-18T11:51:15.131Z,18.60
2022-10-18T11:54:15.182Z,18.70
2022-10-18T11:57:07.674Z,18.70
2022-10-18T11:59:58.520Z,18.90
2022-10-18T12:02:41.287Z,18.90
2022-10-18T12:05:23.152Z,19.00
2022-10-18T12:07:59.044Z,19.10
2022-10-18T12:10:39.282Z,19.20
2022-10-18T12:13:21.254Z,19.20
2022-10-18T12:15:49.648Z,19.80
2022-10-18T12:18:23.188Z,20.10
2022-10-18T12:20:53.290Z,20.30
2022-10-18T12:23:28.841Z,20.30
2022-10-18T12:26:00.586Z,20.10
2022-10-18T12:28:45.990Z,19.90
2022-10-18T12:31:24.597Z,19.60
2022-10-18T12:33:59.437Z,19.60
2022-10-18T12:36:44.007Z,19.80
2022-10-18T12:39:21.548Z,19.60
2022-10-18T12:41:56.787Z,19.40
2022-10-18T12:44:34.691Z,19.40
2022-10-18T12:47:04.505Z,19.50
2022-10-18T12:49:39.115Z,19.50
2022-10-18T12:52:22.439Z,19.40
2022-10-18T12:55:18.243Z,19.40
2022-10-18T12:57:54.028Z,19.30
2022-10-18T13:00:29.641Z,19.30
2022-10-18T13:03:16.521Z,19.50
2022-10-18T13:05:57.735Z,20.00
2022-10-18T13:08:27.248Z,20.20
2022-10-18T13:11:09.281Z,20.20
2022-10-18T13:13:59.207Z,20.30
2022-10-18T13:16:54.204Z,20.40
2022-10-18T13:19:35.920Z,20.40
2022-10-18T13:22:08.733Z,20.30
2022-10-18T13:24:45.195Z,20.10
2022-10-18T13:27:34.874Z,20.00
2022-10-18T13:30:27.994Z,19.80
2022-10-18T13:33:30.455Z,19.70
2022-10-18T13:36:23.269Z,19.60
2022-10-18T13:38:50.335Z,19.50
2022-10-18T13:41:18.584Z,19.50
2022-10-18T13:44:04.195Z,19.40
2022-10-18T13:46:33.933Z,19.40
2022-10-18T13:49:28.737Z,19.40
2022-10-18T13:52:03.137Z,19.30
2022-10-18T13:54:44.881Z,19.40
2022-10-18T13:57:26.156Z,19.50
2022-10-18T14:00:17.405Z,19.50
2022-10-18T14:03:06.402Z,19.60
2022-10-18T14:05:51.165Z,19.60
2022-10-18T14:08:24.294Z,19.60
2022-10-18T14:11:04.194Z,19.60
2022-10-18T14:13:43.816Z,19.50
2022-10-18T14:16:29.996Z,19.50
2022-10-18T14:19:14.176Z,19.60
2022-10-18T14:21:48.708Z,19.60
2022-10-18T14:24:23.032Z,19.70
2022-10-18T14:27:12.705Z,19.60
2022-10-18T14:29:40.616Z,19.70
2022-10-18T14:32:21.775Z,19.80
2022-10-18T14:34:48.625Z,19.90
2022-10-18T14:37:24.664Z,19.90
2022-10-18T14:39:51.320Z,19.80
2022-10-18T14:42:25.807Z,19.90
2022-10-18T14:44:54.313Z,19.90
2022-10-18T14:47:28.250Z,20.00
2022-10-18T14:49:57.523Z,20.00
2022-10-18T14:52:35.081Z,20.00
2022-10-18T14:55:02.391Z,20.00
2022-10-18T14:57:36.106Z,20.10
2022-10-18T15:00:09.059Z,20.10
2022-10-18T15:02:38.243Z,20.10
2022-10-18T15:05:16.306Z,19.90
2022-10-18T15:07:43.951Z,20.10
2022-10-18T15:10:17.139Z,19.80
2022-10-18T15:13:08.299Z,19.80
2022-10-18T15:15:33.313Z,19.90
2022-10-18T15:18:01.416Z,19.90
2022-10-18T15:20:31.800Z,19.90
2022-10-18T15:23:28.053Z,19.90
2022-10-18T15:26:07.773Z,19.70
2022-10-18T15:28:49.956Z,19.70
2022-10-18T15:31:34.914Z,19.70
2022-10-18T15:34:18.153Z,19.60
2022-10-18T15:36:45.700Z,19.50
2022-10-18T15:39:19.949Z,19.40
2022-10-18T15:41:50.049Z,19.30
2022-10-18T15:44:21.393Z,19.20
2022-10-18T15:46:49.808Z,19.20
2022-10-18T15:49:25.682Z,19.20
2022-10-18T15:52:33.825Z,19.20
2022-10-18T15:55:29.370Z,19.10
2022-10-18T15:58:26.284Z,19.00
2022-10-18T16:00:58.540Z,19.00
2022-10-18T16:03:25.454Z,18.90
2022-10-18T16:06:06.869Z,18.90
2022-10-18T16:08:40.480Z,18.90
2022-10-18T16:11:12.772Z,18.80
2022-10-18T16:13:39.440Z,18.80
2022-10-18T16:16:06.625Z,18.70
2022-10-18T16:18:33.714Z,18.70
2022-10-18T16:21:01.867Z,18.60
2022-10-18T16:23:29.253Z,18.50
2022-10-18T16:25:55.882Z,18.40
2022-10-18T16:28:25.103Z,18.30
2022-10-18T16:31:01.189Z,18.30
2022-10-18T16:33:27.826Z,18.30
2022-10-18T16:35:54.665Z,18.20
2022-10-18T16:38:35.194Z,18.20
2022-10-18T16:41:03.801Z,18.20
2022-10-18T16:43:31.192Z,18.20
2022-10-18T16:45:57.753Z,18.10
2022-10-18T16:48:25.345Z,18.00
2022-10-18T16:50:54.444Z,17.80
2022-10-18T16:53:23.734Z,17.70
2022-10-18T16:56:01.356Z,17.70
2022-10-18T16:58:29.549Z,17.60
2022-10-18T17:00:57.311Z,17.40
2022-10-18T17:03:24.443Z,17.40
2022-10-18T17:05:51.425Z,17.40
2022-10-18T17:08:26.280Z,17.40
2022-10-18T17:10:55.880Z,17.30
2022-10-18T17:13:23.875Z,17.30
2022-10-18T17:15:51.489Z,17.20
2022-10-18T17:18:22.106Z,17.20
2022-10-18T17:20:50.252Z,17.10
2022-10-18T17:23:16.837Z,17.00
2022-10-18T17:25:57.412Z,16.90
2022-10-18T17:28:31.267Z,16.80
2022-10-18T17:30:57.872Z,16.80
2022-10-18T17:33:24.647Z,16.90
2022-10-18T17:35:51.228Z,16.80
2022-10-18T17:38:17.849Z,16.80
2022-10-18T17:40:45.418Z,16.70
2022-10-18T17:43:13.552Z,16.70
2022-10-18T17:45:53.609Z,16.60
2022-10-18T17:48:20.347Z,16.60
2022-10-18T17:50:47.128Z,16.60
2022-10-18T17:53:13.916Z,16.60
2022-10-18T17:55:40.652Z,16.60
2022-10-18T17:58:07.492Z,16.60
2022-10-18T18:00:34.234Z,16.50
2022-10-18T18:03:01.062Z,16.50
2022-10-18T18:05:32.874Z,16.40
2022-10-18T18:08:03.728Z,16.30
2022-10-18T18:10:33.006Z,16.30
2022-10-18T18:13:00.015Z,16.30
2022-10-18T18:15:26.869Z,16.20
2022-10-18T18:17:57.038Z,16.10
2022-10-18T18:20:24.764Z,16.10
2022-10-18T18:22:51.741Z,16.10
2022-10-18T18:25:18.670Z,16.10
2022-10-18T18:27:45.357Z,16.10
2022-10-18T18:30:12.291Z,16.10
2022-10-18T18:32:38.877Z,16.00
2022-10-18T18:35:05.922Z,16.00
2022-10-18T18:37:32.684Z,16.00
2022-10-18T18:39:59.319Z,15.80
2022-10-18T18:42:25.901Z,15.80
2022-10-18T18:44:52.647Z,15.80
2022-10-18T18:47:21.486Z,15.80
2022-10-18T18:49:48.897Z,15.90
2022-10-18T18:52:15.594Z,15.80
2022-10-18T18:54:42.261Z,15.80
2022-10-18T18:57:08.840Z,15.80
2022-10-18T18:59:35.472Z,15.80
2022-10-18T19:02:02.080Z,15.70
2022-10-18T19:04:29.040Z,15.60
2022-10-18T19:06:55.769Z,15.60
2022-10-18T19:09:22.863Z,15.50
2022-10-18T19:11:52.765Z,15.50
2022-10-18T19:16:49.062Z,15.50
2022-10-18T19:19:18.587Z,15.40
2022-10-18T19:21:47.971Z,15.50
2022-10-18T19:24:15.557Z,15.50
2022-10-18T19:26:52.514Z,15.50
2022-10-18T19:29:25.992Z,15.50
2022-10-18T19:31:54.863Z,15.40
2022-10-18T19:34:23.604Z,15.40
2022-10-18T19:36:50.902Z,15.40
2022-10-18T19:39:23.203Z,15.30
2022-10-18T19:41:52.557Z,15.30
2022-10-18T19:44:20.836Z,15.30
2022-10-18T19:46:49.064Z,15.30
2022-10-18T19:49:16.581Z,15.30
2022-10-18T19:51:43.377Z,15.30
2022-10-18T19:54:12.080Z,15.30
2022-10-18T19:56:39.157Z,15.30
2022-10-18T19:59:05.791Z,15.20
2022-10-18T20:01:32.381Z,15.20
2022-10-18T20:03:59.489Z,15.10
2022-10-18T20:06:26.489Z,15.00
2022-10-18T20:08:53.270Z,15.10
2022-10-18T20:11:25.963Z,15.10
2022-10-18T20:13:52.906Z,15.10
2022-10-18T20:16:27.688Z,15.10
2022-10-18T20:19:03.123Z,15.10
2022-10-18T20:21:32.901Z,15.20
2022-10-18T20:23:59.473Z,15.20
2022-10-18T20:26:26.210Z,15.20
2022-10-18T20:28:58.720Z,15.20
2022-10-18T20:31:38.098Z,15.20
2022-10-18T20:34:07.673Z,15.20
2022-10-18T20:36:35.283Z,15.10
2022-10-18T20:39:02.681Z,15.20
2022-10-18T20:41:30.479Z,15.10
2022-10-18T20:44:03.127Z,15.00
2022-10-18T20:46:31.781Z,15.10
2022-10-18T20:48:58.688Z,15.00
2022-10-18T20:51:25.456Z,15.00
2022-10-18T20:53:53.199Z,15.00
2022-10-18T20:56:22.336Z,14.90
2022-10-18T20:58:51.234Z,14.90
2022-10-18T21:01:23.645Z,14.80
2022-10-18T21:03:52.056Z,14.80
2022-10-18T21:06:27.937Z,14.70
2022-10-18T21:09:03.296Z,14.70
2022-10-18T21:11:31.515Z,14.70
2022-10-18T21:14:02.548Z,14.70
2022-10-18T21:16:33.465Z,14.70
2022-10-18T21:19:08.739Z,14.70
2022-10-18T21:21:35.329Z,14.60
2022-10-18T21:24:05.358Z,14.60
2022-10-18T21:26:34.443Z,14.60
2022-10-18T21:29:01.111Z,14.60
2022-10-18T21:31:30.648Z,14.50
2022-10-18T21:34:03.081Z,14.60
2022-10-18T21:36:35.898Z,14.60
2022-10-18T21:39:04.893Z,14.70
2022-10-18T21:41:32.303Z,14.70
2022-10-18T21:43:58.977Z,14.80
2022-10-18T21:46:26.972Z,14.80
2022-10-18T21:48:56.236Z,14.70
2022-10-18T21:51:25.670Z,14.80
2022-10-18T21:53:55.068Z,14.70
2022-10-18T21:56:24.246Z,14.70
2022-10-18T21:58:50.917Z,14.70
2022-10-18T22:01:24.125Z,14.70
2022-10-18T22:03:52.531Z,14.60
2022-10-18T22:06:20.059Z,14.60
2022-10-18T22:08:55.496Z,14.60
2022-10-18T22:11:25.569Z,14.50
2022-10-18T22:13:53.210Z,14.60
2022-10-18T22:16:20.025Z,14.50
2022-10-18T22:18:48.523Z,14.50
2022-10-18T22:21:17.059Z,14.50
2022-10-18T22:23:50.766Z,14.40
2022-10-18T22:26:26.913Z,14.40
2022-10-18T22:28:59.196Z,14.50
2022-10-18T22:31:29.365Z,14.40
2022-10-18T22:33:58.264Z,14.40
2022-10-18T22:36:25.871Z,14.30
2022-10-18T22:38:52.705Z,14.30
2022-10-18T22:41:19.800Z,14.30
2022-10-18T22:43:47.643Z,14.40
2022-10-18T22:46:15.159Z,14.40
2022-10-18T22:48:42.598Z,14.40
2022-10-18T22:51:09.961Z,14.50
2022-10-18T22:53:37.758Z,14.50
2022-10-18T22:56:05.288Z,14.60
2022-10-18T22:58:32.030Z,14.40
2022-10-18T23:01:10.670Z,14.40
2022-10-18T23:03:38.668Z,14.40
2022-10-18T23:06:16.969Z,14.30
2022-10-18T23:08:43.626Z,14.30
2022-10-18T23:11:10.167Z,14.30
2022-10-18T23:13:39.454Z,14.30
2022-10-18T23:16:06.711Z,14.20
2022-10-18T23:18:33.474Z,14.10
2022-10-18T23:21:02.491Z,14.10
2022-10-18T23:23:31.342Z,14.00
2022-10-18T23:25:57.907Z,14.00
2022-10-18T23:28:24.454Z,14.00
2022-10-18T23:30:50.980Z,14.10
2022-10-18T23:33:17.647Z,14.10
2022-10-18T23:35:44.243Z,14.20
2022-10-18T23:38:10.785Z,14.20
2022-10-18T23:40:37.328Z,14.20
2022-10-18T23:43:03.957Z,14.20
2022-10-18T23:45:30.551Z,14.20
2022-10-18T23:47:57.075Z,14.30
2022-10-18T23:50:23.597Z,14.30
2022-10-18T23:52:50.148Z,14.30
2022-10-18T23:55:16.759Z,14.30
2022-10-18T23:57:43.327Z,14.20
